CheckWX is a tool to help pilots better visualize weather data.  It is not intended as a substitute for an official pre-flight weather briefing.

07:15:48 UTC

SCEL TAF
Comodoro Arturo Merino Benítez International Airport
Santiago, Chile
TAF SCEL 180435Z 1806/1906 16004KT CAVOK TX21/1818Z TN04/1811Z TEMPO 1808/1812 VRB02KT 5000 BR SCT010 BKN020 BECMG 1817/1819 20013KT BECMG 1900/1902 18005KT

Sep-18@
06:00 UTC

Sep-18 @ 06:00 UTC

Sep-18@
17:00 UTC

Sep-18 @ 17:00 UTC

TAF SCEL 180435Z 1806/1906 16004KT CAVOK TX21/1818Z TN04/1811Z
Wind
  • 160° at 4 KTS
Cloud Levels
  • No significant clouds

Sep-18@
08:00 UTC

Sep-18 @ 08:00 UTC

Sep-18@
12:00 UTC

Sep-18 @ 12:00 UTC

TEMPO 1808/1812 VRB02KT 5000 BR SCT010 BKN020

Temporary

Temporary Changes expected for less than half the time period

Wind
  • Variable at 2 KTS
Conditions
Mist
Cloud Levels
  • Scattered at 1,000' AGL
  • Broken at 2,000' AGL

Sep-18@
17:00 UTC

Sep-18 @ 17:00 UTC

Sep-19@
00:00 UTC

Sep-19 @ 00:00 UTC

BECMG 1817/1819 20013KT

Becoming

Becoming Conditions expected by Wed, Sep 18, 2019 @ 19:00 UTC

Wind
  • 200° at 13 KTS
Cloud Levels
  • No significant clouds

Sep-19@
00:00 UTC

Sep-19 @ 00:00 UTC

Sep-19@
06:00 UTC

Sep-19 @ 06:00 UTC

BECMG 1900/1902 18005KT

Becoming

Becoming Conditions expected by Thu, Sep 19, 2019 @ 02:00 UTC

Wind
  • 180° at 5 KTS
Cloud Levels
  • No significant clouds